createdAt,value
2018-07-26T00:01:22.538Z,9.70
2018-07-26T00:03:50.546Z,9.73
2018-07-26T00:06:18.553Z,10.43
2018-07-26T00:08:46.550Z,9.23
2018-07-26T00:11:14.542Z,9.73
2018-07-26T00:13:42.534Z,9.67
2018-07-26T00:16:10.518Z,8.70
2018-07-26T00:18:38.514Z,10.73
2018-07-26T00:21:06.495Z,10.03
2018-07-26T00:23:34.491Z,10.40
2018-07-26T00:26:02.477Z,10.13
2018-07-26T00:28:30.479Z,8.77
2018-07-26T00:30:58.450Z,8.30
2018-07-26T00:33:26.458Z,8.77
2018-07-26T00:35:54.553Z,9.10
2018-07-26T00:38:22.531Z,9.00
2018-07-26T00:40:50.510Z,8.13
2018-07-26T00:43:18.482Z,8.67
2018-07-26T00:45:46.470Z,8.30
2018-07-26T00:48:14.446Z,8.90
2018-07-26T00:50:42.440Z,8.87
2018-07-26T00:53:10.422Z,8.07
2018-07-26T00:55:38.405Z,8.47
2018-07-26T00:58:06.394Z,8.40
2018-07-26T01:00:34.385Z,7.80
2018-07-26T01:03:02.375Z,8.40
2018-07-26T01:05:30.371Z,8.50
2018-07-26T01:07:58.362Z,8.97
2018-07-26T01:10:26.342Z,8.37
2018-07-26T01:12:54.337Z,8.10
2018-07-26T01:15:22.322Z,7.00
2018-07-26T01:17:50.286Z,8.00
2018-07-26T01:20:18.278Z,8.97
2018-07-26T01:22:46.254Z,8.53
2018-07-26T01:25:14.245Z,8.77
2018-07-26T01:27:42.286Z,8.20
2018-07-26T01:30:10.270Z,8.93
2018-07-26T01:32:38.253Z,9.10
2018-07-26T01:35:06.237Z,8.53
2018-07-26T01:37:34.217Z,9.30
2018-07-26T01:40:02.315Z,9.70
2018-07-26T01:42:34.758Z,9.17
2018-07-26T01:45:02.888Z,9.67
2018-07-26T01:47:30.869Z,9.50
2018-07-26T01:49:58.841Z,8.90
2018-07-26T01:52:26.825Z,10.30
2018-07-26T01:54:54.794Z,9.20
2018-07-26T01:57:22.781Z,9.40
2018-07-26T01:59:50.757Z,9.77
2018-07-26T02:02:18.734Z,9.67
2018-07-26T02:04:46.731Z,10.40
2018-07-26T02:07:14.709Z,10.27
2018-07-26T02:09:42.705Z,9.13
2018-07-26T02:12:10.686Z,9.50
2018-07-26T02:14:38.665Z,7.93
2018-07-26T02:17:06.658Z,9.30
2018-07-26T02:19:34.630Z,9.10
2018-07-26T02:22:02.617Z,8.93
2018-07-26T02:24:30.599Z,9.50
2018-07-26T02:26:58.593Z,8.80
2018-07-26T02:29:26.557Z,8.10
2018-07-26T02:31:54.534Z,8.20
2018-07-26T02:34:22.510Z,8.07
2018-07-26T02:36:50.540Z,8.30
2018-07-26T02:39:18.459Z,7.60
2018-07-26T02:41:46.451Z,8.30
2018-07-26T02:44:14.426Z,8.33
2018-07-26T02:46:42.415Z,7.20
2018-07-26T02:49:10.397Z,8.27
2018-07-26T02:51:38.383Z,8.33
2018-07-26T02:54:06.367Z,7.37
2018-07-26T02:56:34.349Z,8.83
2018-07-26T02:59:02.326Z,7.90
2018-07-26T03:01:30.315Z,8.13
2018-07-26T03:03:58.291Z,8.07
2018-07-26T03:06:26.279Z,7.10
2018-07-26T03:08:54.254Z,7.00
2018-07-26T03:11:22.239Z,6.60
2018-07-26T03:13:50.222Z,7.60
2018-07-26T03:16:18.202Z,5.67
2018-07-26T03:18:46.183Z,7.00
2018-07-26T03:21:14.166Z,6.70
2018-07-26T03:23:42.145Z,6.93
2018-07-26T03:26:10.129Z,6.30
2018-07-26T03:28:38.098Z,7.43
2018-07-26T03:31:06.363Z,7.80
2018-07-26T03:33:34.334Z,6.67
2018-07-26T03:36:02.318Z,6.90
2018-07-26T03:38:30.298Z,6.73
2018-07-26T03:40:58.287Z,7.20
2018-07-26T03:43:26.285Z,6.40
2018-07-26T03:45:54.237Z,7.53
2018-07-26T03:48:22.218Z,6.07
2018-07-26T03:50:50.237Z,6.90
2018-07-26T03:53:18.244Z,6.67
2018-07-26T03:55:46.331Z,6.70
2018-07-26T03:58:14.323Z,6.60
2018-07-26T04:00:42.309Z,5.80
2018-07-26T04:03:10.323Z,6.50
2018-07-26T04:05:38.355Z,7.63
2018-07-26T04:08:06.598Z,6.70
2018-07-26T04:10:34.656Z,6.30
2018-07-26T04:13:02.811Z,6.50
2018-07-26T04:15:30.775Z,6.87
2018-07-26T04:18:06.658Z,6.37
2018-07-26T04:20:34.940Z,5.50
2018-07-26T04:23:02.985Z,6.17
2018-07-26T04:25:31.490Z,7.00
2018-07-26T04:27:59.622Z,6.23
2018-07-26T04:30:27.610Z,6.07
2018-07-26T04:32:55.587Z,6.10
2018-07-26T04:35:23.545Z,6.27
2018-07-26T04:37:51.514Z,6.00
2018-07-26T04:40:19.487Z,6.30
2018-07-26T04:42:47.482Z,6.13
2018-07-26T04:45:15.455Z,6.00
2018-07-26T04:47:43.422Z,6.40
2018-07-26T04:50:15.170Z,5.53
2018-07-26T04:52:43.193Z,5.90
2018-07-26T04:55:11.110Z,5.43
2018-07-26T04:57:39.085Z,5.73
2018-07-26T05:00:07.193Z,4.40
2018-07-26T05:02:35.208Z,5.80
2018-07-26T05:05:03.478Z,5.43
2018-07-26T05:07:31.486Z,5.00
2018-07-26T05:09:59.410Z,5.87
2018-07-26T05:12:27.382Z,4.33
2018-07-26T05:14:55.371Z,4.83
2018-07-26T05:17:23.362Z,4.40
2018-07-26T05:19:51.342Z,4.57
2018-07-26T05:22:19.318Z,4.40
2018-07-26T05:24:47.294Z,4.40
2018-07-26T05:27:15.290Z,5.00
2018-07-26T05:29:43.268Z,4.20
2018-07-26T05:32:11.261Z,4.90
2018-07-26T05:34:39.238Z,3.57
2018-07-26T05:37:07.218Z,4.30
2018-07-26T05:39:35.190Z,4.40
2018-07-26T05:42:03.173Z,4.17
2018-07-26T05:44:31.158Z,5.30
2018-07-26T05:46:59.162Z,4.33
2018-07-26T05:49:27.133Z,4.20
2018-07-26T05:51:55.102Z,5.50
2018-07-26T05:54:23.138Z,3.73
2018-07-26T05:56:51.054Z,4.03
2018-07-26T05:59:19.029Z,4.60
2018-07-26T06:01:46.997Z,4.50
2018-07-26T06:04:15.011Z,4.20
2018-07-26T06:06:42.983Z,4.27
2018-07-26T06:09:11.925Z,3.80
2018-07-26T06:11:40.398Z,4.03
2018-07-26T06:14:08.379Z,4.10
2018-07-26T06:16:36.364Z,3.60
2018-07-26T06:19:04.366Z,4.53
2018-07-26T06:21:32.383Z,3.60
2018-07-26T06:24:00.679Z,4.23
2018-07-26T06:26:28.675Z,3.87
2018-07-26T06:28:56.661Z,4.47
2018-07-26T06:31:24.656Z,4.00
2018-07-26T06:33:52.655Z,3.87
2018-07-26T06:36:20.627Z,4.03
2018-07-26T06:38:48.611Z,4.50
2018-07-26T06:41:16.604Z,3.90
2018-07-26T06:43:44.597Z,4.60
2018-07-26T06:46:12.571Z,4.20
2018-07-26T06:48:40.549Z,4.10
2018-07-26T06:51:08.515Z,3.63
2018-07-26T06:53:36.506Z,4.13
2018-07-26T06:56:04.870Z,4.40
2018-07-26T06:58:32.833Z,5.10
2018-07-26T07:01:00.809Z,4.07
2018-07-26T07:03:28.782Z,3.43
2018-07-26T07:05:56.821Z,4.30
2018-07-26T07:08:24.862Z,3.97
2018-07-26T07:10:52.859Z,4.30
2018-07-26T07:13:20.869Z,3.50
2018-07-26T07:15:48.873Z,3.60
2018-07-26T07:18:18.670Z,3.60
2018-07-26T07:20:46.691Z,4.80
2018-07-26T07:23:14.719Z,4.10
2018-07-26T07:25:42.743Z,3.80
2018-07-26T07:28:10.903Z,3.13
2018-07-26T07:30:38.956Z,4.07
2018-07-26T07:33:06.989Z,3.60
2018-07-26T07:35:35.006Z,4.80
2018-07-26T07:38:03.006Z,3.57
2018-07-26T07:40:31.006Z,3.37
2018-07-26T07:42:59.008Z,3.43
2018-07-26T07:45:27.040Z,3.40
2018-07-26T07:47:55.052Z,2.90
2018-07-26T07:50:23.092Z,3.30
2018-07-26T07:52:51.156Z,3.90
2018-07-26T07:55:19.143Z,3.37
2018-07-26T07:57:47.155Z,3.03
2018-07-26T08:00:15.181Z,3.10
2018-07-26T08:02:43.183Z,3.43
2018-07-26T08:05:11.223Z,2.53
2018-07-26T08:07:39.226Z,3.10
2018-07-26T08:10:08.107Z,3.10
2018-07-26T08:12:36.133Z,3.13
2018-07-26T08:15:04.562Z,3.07
2018-07-26T08:17:32.560Z,3.60
2018-07-26T08:20:00.727Z,3.50
2018-07-26T08:22:28.738Z,3.23
2018-07-26T08:24:56.748Z,3.60
2018-07-26T08:27:24.755Z,2.80
2018-07-26T08:29:52.762Z,2.60
2018-07-26T08:32:20.791Z,2.77
2018-07-26T08:34:48.898Z,2.73
2018-07-26T08:37:16.903Z,2.70
2018-07-26T08:39:44.901Z,2.70
2018-07-26T08:42:12.905Z,2.50
2018-07-26T08:44:40.955Z,3.30
2018-07-26T08:47:08.957Z,2.53
2018-07-26T08:49:36.963Z,3.13
2018-07-26T08:52:05.094Z,3.40
2018-07-26T08:54:33.068Z,2.67
2018-07-26T08:57:01.123Z,2.67
2018-07-26T08:59:29.140Z,3.27
2018-07-26T09:01:57.162Z,2.40
2018-07-26T09:04:25.171Z,3.03
2018-07-26T09:06:53.237Z,2.63
2018-07-26T09:09:21.260Z,2.83
2018-07-26T09:11:49.255Z,3.17
2018-07-26T09:14:17.313Z,2.83
2018-07-26T09:16:45.319Z,2.83
2018-07-26T09:19:13.318Z,2.13
2018-07-26T09:21:41.335Z,3.00
2018-07-26T09:24:10.142Z,2.50
2018-07-26T09:26:38.831Z,2.30
2018-07-26T09:29:06.828Z,2.60
2018-07-26T09:31:34.867Z,3.50
2018-07-26T09:34:02.866Z,2.73
2018-07-26T09:36:30.913Z,2.70
2018-07-26T09:38:58.956Z,2.80
2018-07-26T09:41:26.988Z,3.00
2018-07-26T09:43:54.999Z,2.80
2018-07-26T09:46:23.028Z,2.20
2018-07-26T09:48:51.048Z,2.43
2018-07-26T09:51:19.114Z,2.47
2018-07-26T09:53:47.126Z,2.80
2018-07-26T09:56:15.138Z,2.13
2018-07-26T09:58:43.185Z,2.20
2018-07-26T10:01:16.635Z,2.53
2018-07-26T10:03:44.652Z,2.17
2018-07-26T10:06:12.679Z,2.60
2018-07-26T10:08:40.754Z,2.37
2018-07-26T10:11:08.764Z,2.40
2018-07-26T10:13:36.836Z,2.10
2018-07-26T10:16:04.887Z,2.40
2018-07-26T10:18:32.886Z,2.27
2018-07-26T10:21:00.914Z,2.27
2018-07-26T10:23:28.931Z,2.30
2018-07-26T10:25:58.287Z,2.00
2018-07-26T10:28:26.500Z,2.33
2018-07-26T10:30:54.507Z,2.00
2018-07-26T10:33:22.511Z,2.50
2018-07-26T10:35:50.524Z,2.70
2018-07-26T10:38:18.592Z,2.50
2018-07-26T10:40:55.771Z,2.60
2018-07-26T10:43:23.786Z,2.00
2018-07-26T10:45:51.791Z,2.50
2018-07-26T10:48:19.796Z,2.00
2018-07-26T10:50:47.814Z,2.40
2018-07-26T10:53:15.944Z,2.07
2018-07-26T10:55:43.948Z,2.97
2018-07-26T10:58:11.954Z,2.40
2018-07-26T11:00:39.964Z,2.33
2018-07-26T11:03:07.964Z,2.40
2018-07-26T11:05:36.068Z,2.60
2018-07-26T11:08:04.075Z,2.67
2018-07-26T11:10:32.084Z,3.70
2018-07-26T11:13:00.188Z,3.30
2018-07-26T11:15:29.694Z,3.10
2018-07-26T11:17:58.179Z,2.53
2018-07-26T11:20:26.459Z,2.23
2018-07-26T11:22:54.488Z,2.80
2018-07-26T11:25:22.491Z,2.43
2018-07-26T11:27:53.096Z,2.30
2018-07-26T11:30:21.277Z,2.80
2018-07-26T11:32:49.287Z,2.50
2018-07-26T11:35:17.383Z,2.23
2018-07-26T11:37:45.423Z,1.97
2018-07-26T11:40:13.440Z,2.23
2018-07-26T11:42:41.469Z,2.00
2018-07-26T11:45:10.126Z,2.03
2018-07-26T11:47:38.624Z,2.13
2018-07-26T11:50:07.052Z,2.27
2018-07-26T11:52:35.019Z,2.23
2018-07-26T11:55:03.043Z,2.37
2018-07-26T11:57:31.091Z,2.63
2018-07-26T11:59:59.161Z,2.07
2018-07-26T12:02:27.203Z,2.03
2018-07-26T12:04:55.206Z,2.00
2018-07-26T12:07:23.308Z,1.87
2018-07-26T12:09:51.391Z,2.20
2018-07-26T12:12:19.395Z,2.00
2018-07-26T12:14:47.635Z,2.40
2018-07-26T12:17:15.642Z,2.50
2018-07-26T12:19:43.730Z,2.10
2018-07-26T12:22:12.023Z,2.13
2018-07-26T12:24:40.041Z,2.23
2018-07-26T12:27:08.136Z,2.80
2018-07-26T12:29:36.153Z,2.20
2018-07-26T12:32:04.334Z,2.37
2018-07-26T12:34:32.333Z,1.83
2018-07-26T12:37:00.419Z,2.50
2018-07-26T12:39:28.585Z,2.20
2018-07-26T12:41:56.571Z,2.03
2018-07-26T12:44:24.577Z,2.60
2018-07-26T12:46:52.602Z,2.30
2018-07-26T12:49:20.595Z,2.00
2018-07-26T12:51:48.617Z,1.90
2018-07-26T12:54:16.633Z,2.10
2018-07-26T12:56:44.874Z,2.67
2018-07-26T12:59:31.681Z,2.53
2018-07-26T13:01:59.733Z,2.37
2018-07-26T13:04:27.740Z,2.37
2018-07-26T13:06:55.751Z,2.50
2018-07-26T13:09:23.759Z,2.27
2018-07-26T13:11:51.764Z,2.10
2018-07-26T13:14:19.799Z,2.20
2018-07-26T13:16:47.795Z,2.43
2018-07-26T13:19:15.805Z,2.30
2018-07-26T13:21:43.839Z,2.50
2018-07-26T13:24:11.859Z,2.60
2018-07-26T13:26:39.852Z,2.60
2018-07-26T13:29:07.855Z,2.80
2018-07-26T13:31:35.848Z,2.70
2018-07-26T13:34:03.858Z,2.70
2018-07-26T13:36:31.876Z,2.80
2018-07-26T13:38:59.915Z,2.60
2018-07-26T13:41:27.910Z,2.67
2018-07-26T13:43:55.932Z,3.00
2018-07-26T13:46:23.963Z,3.50
2018-07-26T13:48:51.939Z,3.13
2018-07-26T13:51:19.956Z,3.23
2018-07-26T13:53:48.742Z,3.60
2018-07-26T13:56:16.726Z,3.50
2018-07-26T13:58:44.739Z,3.20
2018-07-26T14:01:12.815Z,3.10
2018-07-26T14:03:40.873Z,3.10
2018-07-26T14:06:08.917Z,2.97
2018-07-26T14:08:36.975Z,3.33
2018-07-26T14:11:05.123Z,3.57
2018-07-26T14:13:33.186Z,2.87
2018-07-26T14:16:01.373Z,3.10
2018-07-26T14:18:29.415Z,3.50
2018-07-26T14:20:57.575Z,3.10
2018-07-26T14:23:31.154Z,2.97
2018-07-26T14:25:59.299Z,3.10
2018-07-26T14:28:27.488Z,3.43
2018-07-26T14:30:56.700Z,3.00
2018-07-26T14:33:24.776Z,3.13
2018-07-26T14:35:53.111Z,3.47
2018-07-26T14:38:21.405Z,2.63
2018-07-26T14:40:49.865Z,3.37
2018-07-26T14:43:17.975Z,2.30
2018-07-26T14:45:46.377Z,3.07
2018-07-26T14:48:14.469Z,2.97
2018-07-26T14:50:42.565Z,2.90
2018-07-26T14:53:10.615Z,3.30
2018-07-26T14:55:38.672Z,3.40
2018-07-26T14:58:06.747Z,2.93
2018-07-26T15:17:14.275Z,3.57
2018-07-26T15:19:42.471Z,3.10
2018-07-26T15:22:10.483Z,3.07
2018-07-26T15:24:38.614Z,3.20
2018-07-26T15:27:06.643Z,3.03
2018-07-26T15:29:34.681Z,5.10
2018-07-26T15:32:02.712Z,3.13
2018-07-26T15:34:30.787Z,3.40
2018-07-26T15:36:58.868Z,2.53
2018-07-26T15:39:26.943Z,3.30
2018-07-26T15:41:54.973Z,3.23
2018-07-26T15:44:23.116Z,3.07
2018-07-26T15:46:51.492Z,3.50
2018-07-26T15:49:19.564Z,2.80
2018-07-26T15:51:47.639Z,3.17
2018-07-26T15:54:15.683Z,3.67
2018-07-26T15:56:43.866Z,3.17
2018-07-26T15:59:11.989Z,3.70
2018-07-26T16:01:40.174Z,3.60
2018-07-26T16:04:08.237Z,3.23
2018-07-26T16:06:36.283Z,3.73
2018-07-26T16:09:07.217Z,3.43
2018-07-26T16:11:35.227Z,3.17
2018-07-26T16:14:03.312Z,3.33
2018-07-26T16:16:31.344Z,3.30
2018-07-26T16:18:59.368Z,3.33
2018-07-26T16:38:07.924Z,6.90
2018-07-26T16:40:36.040Z,3.57
2018-07-26T16:43:04.134Z,3.57
2018-07-26T16:45:32.222Z,3.47
2018-07-26T16:48:00.291Z,3.70
2018-07-26T16:56:02.249Z,2.77
2018-07-26T16:58:30.303Z,3.10
2018-07-26T17:00:59.316Z,3.47
2018-07-26T17:03:27.351Z,3.20
2018-07-26T17:05:55.387Z,3.60
2018-07-26T17:08:23.459Z,2.83
2018-07-26T17:10:51.535Z,3.37
2018-07-26T17:13:19.572Z,3.20
2018-07-26T17:15:47.625Z,3.13
2018-07-26T17:18:15.640Z,3.30
2018-07-26T17:20:43.644Z,3.17
2018-07-26T17:23:11.785Z,3.90
2018-07-26T17:25:39.835Z,3.57
2018-07-26T17:28:07.879Z,3.93
2018-07-26T17:30:35.944Z,3.80
2018-07-26T17:33:04.020Z,3.83
2018-07-26T17:35:32.144Z,3.13
2018-07-26T17:38:00.173Z,2.97
2018-07-26T17:40:28.451Z,3.67
2018-07-26T17:42:56.495Z,4.03
2018-07-26T17:45:24.551Z,3.20
2018-07-26T17:47:52.546Z,3.20
2018-07-26T17:50:20.643Z,3.37
2018-07-26T17:52:48.581Z,3.27
2018-07-26T17:55:16.618Z,3.60
2018-07-26T17:57:44.607Z,2.90
2018-07-26T18:00:13.351Z,3.23
2018-07-26T18:02:41.413Z,3.90
2018-07-26T18:05:09.588Z,3.30
2018-07-26T18:07:37.609Z,3.00
2018-07-26T18:10:05.997Z,3.63
2018-07-26T18:12:34.064Z,3.20
2018-07-26T18:15:02.405Z,3.73
2018-07-26T18:17:30.462Z,3.97
2018-07-26T18:19:58.574Z,4.03
2018-07-26T18:22:26.628Z,3.50
2018-07-26T18:24:54.694Z,3.60
2018-07-26T18:27:22.964Z,3.60
2018-07-26T18:29:51.281Z,4.07
2018-07-26T18:32:19.855Z,3.73
2018-07-26T18:34:49.121Z,4.13
2018-07-26T18:37:17.221Z,4.23
2018-07-26T18:39:45.309Z,3.07
2018-07-26T18:42:13.364Z,3.43
2018-07-26T18:44:41.387Z,3.60
2018-07-26T18:47:09.445Z,3.27
2018-07-26T18:49:37.526Z,3.53
2018-07-26T18:52:05.779Z,2.90
2018-07-26T18:54:33.852Z,3.40
2018-07-26T18:57:01.920Z,3.37
2018-07-26T18:59:29.984Z,3.40
2018-07-26T19:01:58.052Z,3.00
2018-07-26T19:04:26.113Z,3.60
2018-07-26T19:06:54.156Z,3.73
2018-07-26T19:09:22.199Z,3.90
2018-07-26T19:11:50.509Z,3.60
2018-07-26T19:14:18.689Z,3.87
2018-07-26T19:16:46.821Z,4.13
2018-07-26T19:19:15.057Z,4.40
2018-07-26T19:21:43.392Z,3.23
2018-07-26T19:24:11.498Z,4.67
2018-07-26T19:26:40.516Z,3.27
2018-07-26T19:29:14.629Z,3.53
2018-07-26T19:31:42.667Z,3.93
2018-07-26T19:34:10.679Z,4.10
2018-07-26T19:36:38.701Z,4.60
2018-07-26T19:39:07.688Z,5.20
2018-07-26T19:41:37.698Z,18.03
2018-07-26T19:44:05.761Z,53.60
2018-07-26T19:46:33.743Z,25.73
2018-07-26T19:49:01.856Z,37.97
2018-07-26T19:51:30.023Z,27.47
2018-07-26T19:53:58.080Z,21.17
2018-07-26T19:56:26.075Z,16.13
2018-07-26T19:58:54.097Z,15.90
2018-07-26T20:01:22.136Z,16.20
2018-07-26T20:03:50.162Z,56.60
2018-07-26T20:06:18.170Z,79.20
2018-07-26T20:08:46.183Z,60.17
2018-07-26T20:11:14.247Z,43.20
2018-07-26T20:13:42.291Z,37.40
2018-07-26T20:16:10.311Z,37.77
2018-07-26T20:18:38.348Z,28.97
2018-07-26T20:21:06.399Z,19.33
2018-07-26T20:23:34.419Z,16.90
2018-07-26T20:26:02.530Z,9.43
2018-07-26T20:28:30.535Z,8.40
2018-07-26T20:30:58.610Z,10.17
2018-07-26T20:33:27.114Z,8.63
2018-07-26T20:35:55.212Z,9.17
2018-07-26T20:38:23.257Z,7.93
2018-07-26T20:40:51.279Z,7.77
2018-07-26T20:43:19.383Z,5.47
2018-07-26T20:45:47.436Z,6.40
2018-07-26T20:48:15.560Z,5.93
2018-07-26T20:50:43.588Z,7.17
2018-07-26T20:53:11.599Z,6.00
2018-07-26T20:55:39.595Z,6.27
2018-07-26T20:58:07.587Z,6.30
2018-07-26T21:00:35.570Z,5.63
2018-07-26T21:03:03.555Z,5.90
2018-07-26T21:05:31.552Z,6.17
2018-07-26T21:07:59.546Z,5.67
2018-07-26T21:10:27.535Z,6.20
2018-07-26T21:12:55.535Z,6.30
2018-07-26T21:15:23.530Z,7.00
2018-07-26T21:17:51.599Z,7.30
2018-07-26T21:20:19.647Z,6.87
2018-07-26T21:22:47.753Z,7.00
2018-07-26T21:25:15.740Z,7.10
2018-07-26T21:27:43.728Z,6.67
2018-07-26T21:30:11.722Z,7.20
2018-07-26T21:32:39.851Z,6.40
2018-07-26T21:35:08.414Z,6.27
2018-07-26T21:37:36.440Z,7.00
2018-07-26T21:40:05.307Z,7.20
2018-07-26T21:42:33.415Z,7.03
2018-07-26T21:45:01.402Z,6.80
2018-07-26T21:47:29.378Z,6.03
2018-07-26T21:49:57.378Z,6.57
2018-07-26T21:52:25.368Z,6.00
2018-07-26T21:54:53.399Z,6.67
2018-07-26T21:57:21.406Z,6.27
2018-07-26T21:59:49.446Z,6.63
2018-07-26T22:02:17.615Z,6.43
2018-07-26T22:04:45.596Z,6.07
2018-07-26T22:07:13.687Z,6.70
2018-07-26T22:09:41.740Z,6.43
2018-07-26T22:12:09.725Z,6.20
2018-07-26T22:14:37.733Z,6.40
2018-07-26T22:17:05.713Z,6.53
2018-07-26T22:19:33.800Z,6.40
2018-07-26T22:22:01.847Z,6.30
2018-07-26T22:24:29.790Z,6.10
2018-07-26T22:26:57.798Z,6.17
2018-07-26T22:29:25.798Z,5.67
2018-07-26T22:31:53.786Z,6.80
2018-07-26T22:34:21.803Z,6.00
2018-07-26T22:36:49.782Z,5.80
2018-07-26T22:39:17.782Z,5.47
2018-07-26T22:41:45.775Z,5.77
2018-07-26T22:44:13.774Z,5.03
2018-07-26T22:46:41.763Z,5.53
2018-07-26T22:49:09.743Z,5.87
2018-07-26T22:51:37.736Z,5.50
2018-07-26T22:54:05.718Z,5.40
2018-07-26T22:56:33.803Z,6.00
2018-07-26T22:59:01.791Z,6.53
2018-07-26T23:01:29.979Z,6.00
2018-07-26T23:03:57.991Z,5.77
2018-07-26T23:06:26.007Z,5.67
2018-07-26T23:08:54.034Z,6.00
2018-07-26T23:11:22.087Z,6.10
2018-07-26T23:13:50.142Z,6.43
2018-07-26T23:16:18.210Z,5.53
2018-07-26T23:18:46.290Z,6.20
2018-07-26T23:21:14.310Z,5.50
2018-07-26T23:23:42.328Z,5.90
2018-07-26T23:26:10.399Z,6.13
2018-07-26T23:28:38.386Z,6.50
2018-07-26T23:31:06.459Z,5.80
2018-07-26T23:33:34.451Z,6.47
2018-07-26T23:36:02.518Z,5.83
2018-07-26T23:38:30.506Z,6.27
2018-07-26T23:40:59.337Z,7.07
2018-07-26T23:43:27.315Z,6.57
2018-07-26T23:45:55.455Z,6.10
2018-07-26T23:48:23.440Z,6.50
2018-07-26T23:50:51.444Z,6.70
2018-07-26T23:53:19.443Z,6.63
2018-07-26T23:55:47.458Z,6.53
2018-07-26T23:58:15.440Z,6.50
